createdAt,value
2018-08-20T00:00:47.325Z,19.60
2018-08-20T00:03:15.911Z,19.60
2018-08-20T00:05:48.450Z,19.60
2018-08-20T00:08:17.755Z,19.60
2018-08-20T00:10:46.148Z,19.50
2018-08-20T00:13:14.512Z,19.40
2018-08-20T00:15:42.763Z,19.30
2018-08-20T00:18:16.764Z,19.40
2018-08-20T00:20:45.160Z,19.40
2018-08-20T00:23:13.497Z,19.30
2018-08-20T00:25:41.867Z,19.30
2018-08-20T00:28:10.080Z,19.30
2018-08-20T00:30:38.972Z,19.30
2018-08-20T00:33:07.807Z,19.20
2018-08-20T00:35:36.059Z,19.20
2018-08-20T00:38:04.346Z,19.10
2018-08-20T00:40:32.741Z,19.10
2018-08-20T00:43:01.126Z,19.10
2018-08-20T00:45:29.366Z,19.10
2018-08-20T00:47:57.714Z,19.20
2018-08-20T00:50:26.035Z,19.10
2018-08-20T00:52:54.360Z,19.10
2018-08-20T00:55:22.985Z,19.10
2018-08-20T00:57:51.835Z,19.00
2018-08-20T01:00:21.290Z,19.10
2018-08-20T01:02:49.628Z,19.00
2018-08-20T01:05:18.040Z,19.00
2018-08-20T01:07:46.349Z,19.00
2018-08-20T01:10:14.823Z,19.00
2018-08-20T01:12:43.138Z,19.00
2018-08-20T01:15:11.512Z,18.90
2018-08-20T01:17:39.820Z,18.90
2018-08-20T01:20:08.401Z,19.00
2018-08-20T01:22:36.761Z,19.00
2018-08-20T01:25:05.125Z,18.90
2018-08-20T01:27:33.455Z,18.80
2018-08-20T01:30:01.657Z,18.70
2018-08-20T01:32:29.952Z,18.60
2018-08-20T01:35:13.793Z,18.60
2018-08-20T01:37:42.268Z,18.60
2018-08-20T01:40:10.649Z,18.50
2018-08-20T01:42:38.912Z,18.50
2018-08-20T01:45:07.206Z,18.50
2018-08-20T01:47:35.530Z,18.40
2018-08-20T01:50:03.858Z,18.40
2018-08-20T01:52:32.201Z,18.30
2018-08-20T01:55:00.512Z,18.40
2018-08-20T01:57:28.898Z,18.40
2018-08-20T01:59:57.263Z,18.40
2018-08-20T02:02:27.102Z,18.40
2018-08-20T02:04:55.430Z,18.30
2018-08-20T02:07:23.694Z,18.30
2018-08-20T02:09:52.175Z,18.30
2018-08-20T02:12:20.466Z,18.40
2018-08-20T02:14:48.844Z,18.40
2018-08-20T02:17:17.207Z,18.30
2018-08-20T02:19:45.544Z,18.30
2018-08-20T02:22:13.859Z,18.30
2018-08-20T02:24:42.255Z,18.30
2018-08-20T02:27:10.529Z,18.30
2018-08-20T02:29:39.207Z,18.40
2018-08-20T02:32:07.602Z,18.40
2018-08-20T02:34:35.906Z,18.40
2018-08-20T02:37:04.256Z,18.40
2018-08-20T02:39:32.686Z,18.40
2018-08-20T02:42:01.121Z,18.30
2018-08-20T02:44:29.638Z,18.30
2018-08-20T02:46:57.961Z,18.30
2018-08-20T02:49:26.503Z,18.30
2018-08-20T02:51:54.811Z,18.30
2018-08-20T02:54:23.248Z,18.20
2018-08-20T02:56:51.662Z,18.30
2018-08-20T02:59:19.972Z,18.20
2018-08-20T03:01:48.290Z,18.30
2018-08-20T03:04:16.669Z,18.30
2018-08-20T03:06:45.041Z,18.30
2018-08-20T03:09:15.106Z,18.30
2018-08-20T03:11:43.805Z,18.30
2018-08-20T03:14:13.265Z,18.30
2018-08-20T03:16:41.549Z,18.30
2018-08-20T03:19:10.722Z,18.20
2018-08-20T03:21:39.092Z,18.20
2018-08-20T03:24:07.409Z,18.10
2018-08-20T03:26:36.077Z,18.20
2018-08-20T03:29:04.457Z,18.10
2018-08-20T03:31:32.769Z,18.10
2018-08-20T03:34:01.225Z,18.10
2018-08-20T03:36:29.733Z,18.10
2018-08-20T03:38:58.260Z,18.00
2018-08-20T03:41:26.704Z,18.00
2018-08-20T03:43:55.068Z,18.00
2018-08-20T03:46:23.454Z,18.00
2018-08-20T03:48:51.901Z,17.90
2018-08-20T03:51:20.447Z,17.90
2018-08-20T03:53:48.741Z,17.90
2018-08-20T03:56:17.269Z,17.90
2018-08-20T03:58:45.760Z,17.90
2018-08-20T04:01:14.127Z,17.90
2018-08-20T04:03:43.261Z,17.80
2018-08-20T04:06:11.646Z,17.80
2018-08-20T04:08:40.038Z,17.80
2018-08-20T04:11:09.053Z,17.80
2018-08-20T04:13:37.446Z,17.80
2018-08-20T04:16:05.745Z,17.80
2018-08-20T04:18:34.061Z,17.80
2018-08-20T04:21:02.387Z,17.70
2018-08-20T04:23:30.990Z,17.70
2018-08-20T04:25:59.354Z,17.60
2018-08-20T04:28:27.685Z,17.60
2018-08-20T04:30:56.177Z,17.50
2018-08-20T04:33:24.491Z,17.50
2018-08-20T04:35:52.764Z,17.50
2018-08-20T04:38:21.037Z,17.50
2018-08-20T04:40:49.422Z,17.60
2018-08-20T04:43:17.842Z,17.50
2018-08-20T04:45:46.240Z,17.50
2018-08-20T04:48:14.554Z,17.50
2018-08-20T04:50:42.919Z,17.60
2018-08-20T04:53:11.223Z,17.60
2018-08-20T04:55:39.692Z,17.60
2018-08-20T04:58:07.987Z,17.60
2018-08-20T05:00:36.247Z,17.60
2018-08-20T05:03:04.672Z,17.70
2018-08-20T05:05:32.979Z,17.60
2018-08-20T05:08:01.699Z,17.60
2018-08-20T05:10:30.003Z,17.70
2018-08-20T05:12:58.410Z,17.90
2018-08-20T05:15:26.796Z,18.10
2018-08-20T05:17:55.377Z,18.20
2018-08-20T05:20:23.618Z,18.40
2018-08-20T05:22:52.196Z,18.60
2018-08-20T05:25:20.618Z,18.80
2018-08-20T05:27:49.032Z,19.10
2018-08-20T05:30:17.350Z,19.40
2018-08-20T05:32:46.024Z,19.60
2018-08-20T05:35:14.211Z,19.70
2018-08-20T05:37:42.589Z,20.00
2018-08-20T05:40:10.790Z,20.10
2018-08-20T05:42:39.033Z,20.30
2018-08-20T05:45:09.493Z,20.50
2018-08-20T05:47:37.705Z,20.90
2018-08-20T05:50:06.275Z,21.20
2018-08-20T05:52:34.526Z,21.60
2018-08-20T05:55:02.662Z,21.80
2018-08-20T05:57:31.136Z,21.80
2018-08-20T05:59:59.502Z,21.70
2018-08-20T06:02:27.769Z,21.90
2018-08-20T06:04:55.979Z,21.60
2018-08-20T06:07:24.246Z,21.60
2018-08-20T06:09:52.525Z,21.60
2018-08-20T06:12:21.716Z,21.80
2018-08-20T06:14:49.892Z,22.10
2018-08-20T06:17:18.085Z,22.30
2018-08-20T06:19:46.249Z,22.40
2018-08-20T06:22:14.430Z,22.60
2018-08-20T06:24:42.586Z,22.60
2018-08-20T06:27:11.047Z,22.70
2018-08-20T06:29:39.205Z,22.80
2018-08-20T06:32:07.405Z,22.80
2018-08-20T06:34:35.586Z,22.40
2018-08-20T06:37:03.768Z,22.20
2018-08-20T06:39:31.938Z,22.40
2018-08-20T06:42:00.146Z,22.10
2018-08-20T06:44:28.319Z,22.30
2018-08-20T06:46:56.519Z,22.40
2018-08-20T06:49:24.693Z,22.60
2018-08-20T06:51:52.839Z,22.90
2018-08-20T06:54:21.026Z,23.00
2018-08-20T06:56:49.158Z,22.90
2018-08-20T06:59:17.321Z,23.30
2018-08-20T07:01:45.497Z,23.30
2018-08-20T07:04:14.042Z,23.30
2018-08-20T07:06:42.249Z,23.30
2018-08-20T07:09:11.386Z,23.20
2018-08-20T07:11:39.587Z,23.10
2018-08-20T07:14:07.736Z,23.10
2018-08-20T07:16:35.893Z,23.20
2018-08-20T07:19:04.045Z,23.40
2018-08-20T07:21:32.661Z,23.50
2018-08-20T07:24:00.866Z,23.60
2018-08-20T07:26:29.060Z,23.60
2018-08-20T07:28:57.302Z,23.60
2018-08-20T07:31:25.507Z,23.60
2018-08-20T07:33:53.721Z,23.80
2018-08-20T07:36:21.916Z,23.80
2018-08-20T07:38:50.183Z,23.80
2018-08-20T07:41:18.590Z,24.00
2018-08-20T07:43:46.822Z,24.10
2018-08-20T07:46:15.129Z,24.20
2018-08-20T07:48:43.578Z,24.40
2018-08-20T07:51:12.058Z,24.50
2018-08-20T07:53:40.568Z,24.40
2018-08-20T07:56:08.721Z,24.50
2018-08-20T07:58:36.915Z,24.70
2018-08-20T08:01:05.063Z,24.90
2018-08-20T08:03:33.253Z,25.10
2018-08-20T08:06:03.274Z,25.30
2018-08-20T08:08:31.493Z,25.50
2018-08-20T08:10:59.633Z,25.90
2018-08-20T08:13:28.250Z,26.40
2018-08-20T08:15:56.481Z,26.60
2018-08-20T08:18:25.073Z,26.60
2018-08-20T08:20:53.209Z,26.90
2018-08-20T08:23:21.389Z,26.90
2018-08-20T08:25:49.566Z,27.00
2018-08-20T08:28:17.684Z,27.20
2018-08-20T08:30:45.841Z,27.20
2018-08-20T08:33:13.999Z,27.50
2018-08-20T08:35:42.150Z,27.80
2018-08-20T08:38:10.421Z,28.10
2018-08-20T08:40:38.453Z,28.10
2018-08-20T08:43:06.652Z,28.20
2018-08-20T08:45:34.782Z,28.20
2018-08-20T08:48:03.012Z,28.40
2018-08-20T08:50:31.161Z,28.50
2018-08-20T08:52:59.331Z,28.10
2018-08-20T08:55:27.501Z,28.20
2018-08-20T08:57:55.680Z,28.20
2018-08-20T09:00:23.880Z,28.20
2018-08-20T09:02:53.180Z,27.90
2018-08-20T09:05:21.342Z,27.60
2018-08-20T09:07:49.502Z,27.70
2018-08-20T09:10:17.637Z,27.90
2018-08-20T09:12:45.789Z,28.20
2018-08-20T09:15:17.406Z,28.60
2018-08-20T09:17:45.889Z,28.80
2018-08-20T09:20:17.764Z,28.90
2018-08-20T09:22:45.897Z,28.90
2018-08-20T09:25:14.765Z,28.80
2018-08-20T09:27:44.567Z,28.50
2018-08-20T09:30:15.377Z,28.70
2018-08-20T09:32:44.117Z,28.80
2018-08-20T09:35:12.258Z,28.90
2018-08-20T09:37:40.562Z,29.20
2018-08-20T09:40:09.621Z,29.30
2018-08-20T09:42:38.517Z,28.80
2018-08-20T09:45:06.957Z,28.90
2018-08-20T09:47:35.616Z,29.20
2018-08-20T09:50:04.255Z,29.50
2018-08-20T09:52:32.375Z,29.60
2018-08-20T09:55:00.634Z,29.70
2018-08-20T09:57:28.774Z,29.30
2018-08-20T09:59:57.977Z,29.20
2018-08-20T10:02:26.465Z,29.20
2018-08-20T10:07:45.580Z,29.70
2018-08-20T10:10:13.782Z,30.00
2018-08-20T10:12:42.148Z,30.00
2018-08-20T10:15:10.305Z,30.00
2018-08-20T10:17:38.409Z,29.80
2018-08-20T10:20:08.231Z,29.80
2018-08-20T10:22:36.367Z,30.00
2018-08-20T10:25:04.709Z,30.20
2018-08-20T10:27:32.836Z,30.50
2018-08-20T10:30:02.204Z,30.60
2018-08-20T10:32:31.231Z,30.70
2018-08-20T10:34:59.424Z,30.80
2018-08-20T10:37:27.575Z,30.80
2018-08-20T10:39:56.823Z,30.70
2018-08-20T10:42:24.974Z,30.50
2018-08-20T10:44:58.365Z,30.20
2018-08-20T10:47:26.513Z,30.20
2018-08-20T10:49:54.695Z,30.30
2018-08-20T10:52:22.878Z,30.70
2018-08-20T10:54:51.008Z,30.80
2018-08-20T10:57:19.186Z,30.70
2018-08-20T10:59:47.345Z,30.40
2018-08-20T11:02:15.506Z,30.20
2018-08-20T11:04:43.625Z,30.20
2018-08-20T11:07:11.765Z,30.20
2018-08-20T11:09:39.877Z,30.20
2018-08-20T11:12:08.070Z,30.00
2018-08-20T11:14:36.181Z,30.00
2018-08-20T11:17:04.322Z,30.20
2018-08-20T11:19:32.442Z,30.20
2018-08-20T11:22:00.613Z,30.10
2018-08-20T11:24:28.870Z,30.30
2018-08-20T11:26:57.194Z,30.50
2018-08-20T11:29:25.333Z,30.40
2018-08-20T11:31:53.526Z,30.40
2018-08-20T11:34:21.718Z,30.60
2018-08-20T11:36:49.970Z,30.40
2018-08-20T11:39:18.112Z,30.30
2018-08-20T11:41:46.242Z,30.40
2018-08-20T11:44:14.415Z,30.40
2018-08-20T11:46:42.644Z,30.40
2018-08-20T11:49:10.838Z,30.70
2018-08-20T11:51:38.941Z,31.10
2018-08-20T11:54:07.113Z,31.40
2018-08-20T11:56:35.241Z,31.40
2018-08-20T11:59:03.450Z,31.00
2018-08-20T12:01:31.765Z,31.10
2018-08-20T12:03:59.893Z,31.30
2018-08-20T12:06:28.054Z,31.30
2018-08-20T12:08:56.227Z,30.70
2018-08-20T12:11:24.377Z,30.80
2018-08-20T12:13:52.537Z,31.00
2018-08-20T12:16:20.658Z,31.00
2018-08-20T12:18:48.781Z,31.10
2018-08-20T12:21:16.913Z,31.20
2018-08-20T12:23:45.117Z,31.30
2018-08-20T12:26:13.248Z,31.40
2018-08-20T12:28:41.377Z,31.00
2018-08-20T12:31:09.494Z,30.70
2018-08-20T12:33:37.682Z,30.90
2018-08-20T12:36:06.940Z,31.10
2018-08-20T12:38:35.619Z,31.40
2018-08-20T12:41:03.730Z,31.50
2018-08-20T12:43:32.078Z,31.20
2018-08-20T12:46:00.766Z,31.10
2018-08-20T12:48:30.028Z,31.20
2018-08-20T12:50:58.148Z,31.40
2018-08-20T12:53:27.921Z,31.50
2018-08-20T12:55:56.611Z,31.30
2018-08-20T12:58:25.109Z,31.20
2018-08-20T13:00:53.354Z,31.30
2018-08-20T13:03:21.469Z,31.10
2018-08-20T13:05:49.573Z,31.20
2018-08-20T13:08:17.707Z,31.20
2018-08-20T13:10:45.838Z,31.40
2018-08-20T13:13:13.981Z,31.50
2018-08-20T13:15:42.146Z,31.70
2018-08-20T13:18:10.277Z,31.70
2018-08-20T13:20:38.438Z,31.90
2018-08-20T13:23:06.960Z,32.00
2018-08-20T13:25:35.057Z,32.10
2018-08-20T13:28:03.183Z,32.10
2018-08-20T13:30:31.328Z,32.00
2018-08-20T13:32:59.490Z,32.00
2018-08-20T13:35:27.686Z,32.00
2018-08-20T13:37:55.833Z,32.20
2018-08-20T13:40:24.090Z,32.50
2018-08-20T13:42:52.294Z,32.70
2018-08-20T13:45:20.466Z,32.80
2018-08-20T13:47:48.595Z,32.60
2018-08-20T13:50:16.769Z,32.30
2018-08-20T13:52:46.301Z,31.90
2018-08-20T13:55:14.911Z,31.70
2018-08-20T13:57:47.101Z,31.70
2018-08-20T14:00:16.923Z,31.80
2018-08-20T14:02:45.141Z,32.00
2018-08-20T14:05:14.121Z,32.20
2018-08-20T14:07:42.374Z,32.30
2018-08-20T14:10:11.388Z,32.20
2018-08-20T14:12:40.319Z,32.00
2018-08-20T14:15:10.129Z,31.90
2018-08-20T14:17:39.126Z,32.00
2018-08-20T14:20:09.254Z,32.00
2018-08-20T14:22:37.395Z,32.10
2018-08-20T14:25:05.579Z,31.90
2018-08-20T14:27:34.136Z,31.70
2018-08-20T14:30:02.313Z,31.50
2018-08-20T14:32:30.786Z,31.50
2018-08-20T14:34:59.622Z,31.70
2018-08-20T14:37:27.876Z,31.70
2018-08-20T14:39:56.051Z,31.80
2018-08-20T14:42:24.271Z,31.80
2018-08-20T14:44:52.474Z,31.90
2018-08-20T14:47:20.638Z,32.00
2018-08-20T14:49:48.808Z,32.00
2018-08-20T14:52:16.955Z,31.90
2018-08-20T14:54:45.134Z,31.80
2018-08-20T14:57:13.274Z,31.70
2018-08-20T14:59:41.417Z,31.80
2018-08-20T15:02:09.576Z,31.90
2018-08-20T15:04:37.713Z,31.90
2018-08-20T15:07:07.820Z,31.60
2018-08-20T15:09:36.033Z,31.40
2018-08-20T15:12:04.396Z,31.20
2018-08-20T15:14:32.538Z,31.20
2018-08-20T15:17:00.705Z,31.10
2018-08-20T15:19:28.859Z,31.10
2018-08-20T15:21:57.069Z,31.10
2018-08-20T15:24:25.295Z,31.10
2018-08-20T15:26:53.441Z,31.00
2018-08-20T15:29:21.590Z,30.80
2018-08-20T15:31:49.734Z,30.60
2018-08-20T15:34:17.845Z,30.50
2018-08-20T15:36:45.968Z,30.50
2018-08-20T15:39:14.172Z,30.50
2018-08-20T15:41:42.279Z,30.40
2018-08-20T15:44:10.975Z,30.40
2018-08-20T15:46:39.131Z,30.30
2018-08-20T15:49:07.266Z,30.30
2018-08-20T15:51:35.659Z,30.20
2018-08-20T15:54:03.819Z,30.20
2018-08-20T15:56:31.968Z,30.20
2018-08-20T15:59:00.130Z,30.20
2018-08-20T16:01:28.294Z,30.30
2018-08-20T16:03:56.477Z,30.30
2018-08-20T16:06:24.641Z,30.20
2018-08-20T16:08:52.837Z,30.30
2018-08-20T16:11:21.071Z,30.20
2018-08-20T16:13:49.237Z,30.20
2018-08-20T16:16:17.373Z,30.10
2018-08-20T16:18:45.522Z,30.10
2018-08-20T16:21:13.644Z,29.90
2018-08-20T16:23:41.810Z,29.90
2018-08-20T16:26:10.034Z,29.80
2018-08-20T16:28:38.157Z,29.70
2018-08-20T16:31:06.525Z,29.60
2018-08-20T16:33:34.673Z,29.60
2018-08-20T16:36:02.833Z,29.50
2018-08-20T16:38:31.007Z,29.60
2018-08-20T16:40:59.190Z,29.50
2018-08-20T16:43:27.328Z,29.50
2018-08-20T16:45:55.614Z,29.40
2018-08-20T16:48:24.073Z,29.40
2018-08-20T16:50:52.363Z,29.30
2018-08-20T16:53:20.849Z,29.10
2018-08-20T16:55:48.984Z,29.00
2018-08-20T16:58:17.158Z,29.00
2018-08-20T17:00:45.289Z,28.90
2018-08-20T17:03:13.453Z,28.80
2018-08-20T17:05:47.577Z,28.70
2018-08-20T17:08:20.266Z,28.70
2018-08-20T17:10:48.389Z,28.50
2018-08-20T17:13:16.539Z,28.40
2018-08-20T17:15:44.683Z,28.40
2018-08-20T17:18:12.853Z,28.40
2018-08-20T17:20:40.984Z,28.30
2018-08-20T17:23:15.996Z,28.20
2018-08-20T17:25:44.270Z,28.10
2018-08-20T17:28:12.397Z,28.00
2018-08-20T17:30:40.510Z,27.90
2018-08-20T17:33:08.775Z,27.90
2018-08-20T17:35:39.130Z,27.90
2018-08-20T17:38:07.285Z,27.80
2018-08-20T17:40:37.189Z,27.60
2018-08-20T17:43:05.730Z,27.60
2018-08-20T17:45:33.923Z,27.60
2018-08-20T17:48:02.118Z,27.50
2018-08-20T17:50:45.026Z,27.40
2018-08-20T17:53:13.151Z,27.30
2018-08-20T17:55:41.363Z,27.20
2018-08-20T17:58:09.710Z,27.20
2018-08-20T18:00:43.470Z,27.10
2018-08-20T18:03:17.040Z,27.00
2018-08-20T18:05:45.254Z,27.00
2018-08-20T18:08:13.373Z,27.00
2018-08-20T18:10:41.485Z,27.00
2018-08-20T18:13:10.411Z,26.90
2018-08-20T18:15:38.524Z,26.90
2018-08-20T18:18:06.673Z,26.80
2018-08-20T18:20:39.467Z,26.70
2018-08-20T18:23:08.576Z,26.70
2018-08-20T18:25:41.789Z,26.70
2018-08-20T18:28:09.939Z,26.70
2018-08-20T18:30:38.046Z,26.60
2018-08-20T18:33:06.189Z,26.60
2018-08-20T18:35:36.266Z,26.60
2018-08-20T18:38:04.574Z,26.50
2018-08-20T18:40:32.960Z,26.50
2018-08-20T18:43:01.373Z,26.40
2018-08-20T18:45:29.506Z,26.40
2018-08-20T18:47:57.709Z,26.30
2018-08-20T18:50:25.923Z,26.30
2018-08-20T18:52:54.175Z,26.30
2018-08-20T18:55:22.349Z,26.20
2018-08-20T18:57:51.017Z,26.20
2018-08-20T19:00:19.156Z,26.20
2018-08-20T19:02:52.828Z,26.20
2018-08-20T19:05:21.401Z,26.20
2018-08-20T19:07:49.552Z,26.10
2018-08-20T19:10:19.230Z,26.00
2018-08-20T19:12:47.392Z,26.00
2018-08-20T19:15:28.100Z,25.90
2018-08-20T19:17:56.389Z,25.80
2018-08-20T19:20:24.531Z,25.80
2018-08-20T19:22:52.700Z,25.70
2018-08-20T19:25:20.880Z,25.70
2018-08-20T19:27:48.983Z,25.60
2018-08-20T19:30:21.877Z,25.50
2018-08-20T19:32:50.072Z,25.40
2018-08-20T19:35:18.222Z,25.30
2018-08-20T19:37:46.433Z,25.20
2018-08-20T19:40:14.700Z,25.10
2018-08-20T19:42:42.821Z,25.00
2018-08-20T19:45:11.962Z,25.00
2018-08-20T19:47:40.120Z,24.90
2018-08-20T19:50:09.874Z,24.90
2018-08-20T19:52:37.992Z,24.80
2018-08-20T19:55:09.796Z,24.80
2018-08-20T19:57:38.029Z,24.70
2018-08-20T20:00:09.384Z,24.60
2018-08-20T20:02:38.210Z,24.60
2018-08-20T20:05:06.818Z,24.50
2018-08-20T20:07:36.635Z,24.40
2018-08-20T20:10:09.137Z,24.50
2018-08-20T20:12:42.446Z,24.50
2018-08-20T20:15:10.575Z,24.40
2018-08-20T20:17:38.805Z,24.30
2018-08-20T20:20:07.001Z,24.30
2018-08-20T20:22:35.169Z,24.30
2018-08-20T20:25:03.437Z,24.20
2018-08-20T20:27:31.598Z,24.10
2018-08-20T20:29:59.726Z,24.00
2018-08-20T20:32:27.882Z,24.00
2018-08-20T20:34:56.030Z,23.90
2018-08-20T20:37:24.162Z,23.90
2018-08-20T20:40:00.518Z,23.90
2018-08-20T20:42:29.285Z,23.80
2018-08-20T20:44:57.602Z,23.80
2018-08-20T20:47:26.475Z,23.60
2018-08-20T20:49:54.864Z,23.60
2018-08-20T20:52:23.113Z,23.50
2018-08-20T20:54:51.245Z,23.40
2018-08-20T20:57:19.393Z,23.30
2018-08-20T20:59:47.517Z,23.30
2018-08-20T21:02:15.630Z,23.30
2018-08-20T21:04:43.806Z,23.20
2018-08-20T21:07:14.102Z,23.10
2018-08-20T21:09:48.336Z,23.00
2018-08-20T21:12:17.345Z,22.90
2018-08-20T21:14:45.482Z,22.80
2018-08-20T21:17:13.594Z,22.60
2018-08-20T21:19:41.715Z,22.50
2018-08-20T21:22:09.881Z,22.40
2018-08-20T21:24:39.205Z,22.40
2018-08-20T21:27:13.600Z,22.30
2018-08-20T21:29:42.317Z,22.20
2018-08-20T21:32:10.632Z,22.00
2018-08-20T21:34:40.968Z,21.80
2018-08-20T21:37:09.685Z,21.80
2018-08-20T21:39:39.135Z,22.00
2018-08-20T21:42:07.259Z,22.00
2018-08-20T21:44:35.445Z,21.80
2018-08-20T21:47:14.976Z,21.90
2018-08-20T21:49:43.067Z,21.80
2018-08-20T21:52:12.139Z,21.80
2018-08-20T21:54:40.270Z,21.80
2018-08-20T21:57:08.455Z,22.00
2018-08-20T21:59:36.533Z,22.00
2018-08-20T22:02:04.730Z,21.90
2018-08-20T22:04:32.847Z,21.70
2018-08-20T22:07:01.042Z,21.50
2018-08-20T22:09:29.206Z,21.40
2018-08-20T22:11:58.202Z,21.40
2018-08-20T22:14:26.700Z,21.30
2018-08-20T22:16:54.902Z,21.20
2018-08-20T22:19:23.056Z,21.10
2018-08-20T22:21:51.301Z,21.10
2018-08-20T22:24:19.467Z,21.00
2018-08-20T22:26:53.200Z,21.00
2018-08-20T22:29:21.406Z,20.80
2018-08-20T22:31:55.582Z,20.70
2018-08-20T22:34:26.797Z,20.70
2018-08-20T22:36:59.495Z,20.90
2018-08-20T22:39:27.630Z,21.00
2018-08-20T22:41:55.813Z,21.00
2018-08-20T22:44:24.000Z,21.10
2018-08-20T22:46:52.229Z,21.00
2018-08-20T22:49:20.404Z,20.90
2018-08-20T22:51:48.557Z,20.90
2018-08-20T22:54:16.787Z,20.90
2018-08-20T22:56:44.954Z,21.00
2018-08-20T22:59:13.419Z,21.00
2018-08-20T23:01:41.560Z,21.00
2018-08-20T23:04:10.547Z,20.90
2018-08-20T23:06:38.722Z,20.90
2018-08-20T23:09:24.170Z,20.90
2018-08-20T23:11:52.861Z,20.90
2018-08-20T23:14:21.053Z,20.80
2018-08-20T23:16:50.513Z,20.80
2018-08-20T23:19:18.959Z,20.80
2018-08-20T23:21:47.985Z,20.70
2018-08-20T23:24:16.990Z,20.70
2018-08-20T23:26:45.166Z,20.60
2018-08-20T23:29:13.350Z,20.40
2018-08-20T23:31:41.813Z,20.30
2018-08-20T23:34:12.049Z,20.30
2018-08-20T23:36:40.806Z,20.30
2018-08-20T23:39:13.916Z,20.40
2018-08-20T23:41:42.090Z,20.50
2018-08-20T23:44:10.328Z,20.50
2018-08-20T23:46:43.870Z,20.40
2018-08-20T23:49:12.146Z,20.50
2018-08-20T23:51:40.373Z,20.40
2018-08-20T23:54:09.470Z,20.50
2018-08-20T23:56:37.663Z,20.50
2018-08-20T23:59:06.993Z,20.50
